createdAt,value
2019-03-13T00:03:31.317Z,3.50
2019-03-13T00:08:37.247Z,4.17
2019-03-13T00:13:43.839Z,3.93
2019-03-13T00:18:50.489Z,4.50
2019-03-13T00:23:57.356Z,4.53
2019-03-13T00:29:03.365Z,4.63
2019-03-13T00:34:09.281Z,5.03
2019-03-13T00:39:15.558Z,4.40
2019-03-13T00:44:21.692Z,4.43
2019-03-13T00:49:27.355Z,4.67
2019-03-13T00:54:33.817Z,4.70
2019-03-13T00:59:39.906Z,5.13
2019-03-13T01:04:52.316Z,5.83
2019-03-13T01:09:59.051Z,5.80
2019-03-13T01:15:04.834Z,5.43
2019-03-13T01:20:11.178Z,4.63
2019-03-13T01:25:19.177Z,5.20
2019-03-13T01:30:26.390Z,4.80
2019-03-13T01:35:38.539Z,5.10
2019-03-13T01:40:44.340Z,4.63
2019-03-13T01:45:49.756Z,4.43
2019-03-13T01:50:56.182Z,3.57
2019-03-13T01:56:02.629Z,3.47
2019-03-13T02:01:11.037Z,3.00
2019-03-13T02:06:17.607Z,3.00
2019-03-13T02:11:23.889Z,2.63
2019-03-13T02:16:29.609Z,2.17
2019-03-13T02:21:35.390Z,1.90
2019-03-13T02:26:41.789Z,2.20
2019-03-13T02:31:50.722Z,2.47
2019-03-13T02:36:57.011Z,2.03
2019-03-13T02:42:03.423Z,1.63
2019-03-13T02:47:09.365Z,2.00
2019-03-13T02:52:15.716Z,1.80
2019-03-13T02:57:22.211Z,1.90
2019-03-13T03:02:32.461Z,2.17
2019-03-13T03:07:38.178Z,1.93
2019-03-13T03:12:46.344Z,2.23
2019-03-13T03:17:52.765Z,1.83
2019-03-13T03:22:59.674Z,2.10
2019-03-13T03:28:06.406Z,2.23
2019-03-13T03:33:13.306Z,1.90
2019-03-13T03:38:19.294Z,2.33
2019-03-13T03:43:39.203Z,2.40
2019-03-13T03:48:33.973Z,2.47
2019-03-13T03:53:39.285Z,1.97
2019-03-13T03:58:45.438Z,2.27
2019-03-13T04:03:51.935Z,1.97
2019-03-13T04:08:57.738Z,2.10
2019-03-13T04:14:03.890Z,1.60
2019-03-13T04:19:09.901Z,2.10
2019-03-13T04:24:15.685Z,2.10
2019-03-13T04:29:22.048Z,2.23
2019-03-13T04:34:29.910Z,2.00
2019-03-13T04:39:36.960Z,2.20
2019-03-13T04:44:44.686Z,2.03
2019-03-13T04:49:50.464Z,2.47
2019-03-13T04:54:57.282Z,2.20
2019-03-13T05:00:08.370Z,2.30
2019-03-13T05:05:48.145Z,2.33
2019-03-13T05:10:54.974Z,2.33
2019-03-13T05:16:01.330Z,2.13
2019-03-13T05:21:06.212Z,2.87
2019-03-13T05:26:11.540Z,2.70
2019-03-13T05:31:19.226Z,2.30
2019-03-13T05:36:26.708Z,2.30
2019-03-13T05:41:33.122Z,2.80
2019-03-13T05:46:39.600Z,3.23
2019-03-13T05:51:46.157Z,2.37
2019-03-13T05:56:52.466Z,2.80
2019-03-13T06:01:59.893Z,2.27
2019-03-13T06:07:06.466Z,2.90
2019-03-13T06:12:13.182Z,2.23
2019-03-13T06:17:19.411Z,2.70
2019-03-13T06:22:27.293Z,2.73
2019-03-13T06:27:33.345Z,3.57
2019-03-13T06:32:39.697Z,2.93
2019-03-13T06:37:48.190Z,2.93
2019-03-13T06:42:55.226Z,3.33
2019-03-13T06:48:00.790Z,2.60
2019-03-13T06:53:07.601Z,3.23
2019-03-13T06:58:13.723Z,3.07
2019-03-13T07:03:44.858Z,2.70
2019-03-13T07:09:01.858Z,3.40
2019-03-13T07:14:38.607Z,3.00
2019-03-13T07:20:02.069Z,2.60
2019-03-13T07:25:44.066Z,3.00
2019-03-13T07:31:12.065Z,2.57
2019-03-13T07:36:39.955Z,3.10
2019-03-13T07:42:10.601Z,2.57
2019-03-13T07:47:36.195Z,2.97
2019-03-13T07:53:03.451Z,3.10
2019-03-13T07:58:34.014Z,2.93
2019-03-13T08:04:01.013Z,2.90
2019-03-13T08:09:25.284Z,3.10
2019-03-13T08:14:40.799Z,2.70
2019-03-13T08:20:02.872Z,2.93
2019-03-13T08:25:25.468Z,2.70
2019-03-13T08:31:04.876Z,3.93
2019-03-13T08:36:40.887Z,2.53
2019-03-13T08:42:05.045Z,3.77
2019-03-13T08:47:49.153Z,2.40
2019-03-13T08:53:11.259Z,2.57
2019-03-13T08:58:27.421Z,2.43
2019-03-13T09:03:41.850Z,2.80
2019-03-13T09:09:01.545Z,1.97
2019-03-13T09:14:33.516Z,1.93
2019-03-13T09:20:01.097Z,2.20
2019-03-13T09:25:34.837Z,2.27
2019-03-13T09:31:07.618Z,2.37
2019-03-13T09:36:26.085Z,2.40
2019-03-13T09:41:50.605Z,2.60
2019-03-13T09:47:18.679Z,2.50
2019-03-13T09:52:41.976Z,2.00
2019-03-13T09:58:01.969Z,2.07
2019-03-13T10:03:27.806Z,2.80
2019-03-13T10:08:47.972Z,2.87
2019-03-13T10:14:08.013Z,2.10
2019-03-13T10:19:43.047Z,2.40
2019-03-13T10:25:07.620Z,2.70
2019-03-13T10:30:32.184Z,2.90
2019-03-13T10:35:55.869Z,2.60
2019-03-13T10:41:26.695Z,2.73
2019-03-13T10:46:47.351Z,2.40
2019-03-13T10:52:11.965Z,2.20
2019-03-13T10:57:59.794Z,2.20
2019-03-13T11:03:28.117Z,2.37
2019-03-13T11:08:49.768Z,2.80
2019-03-13T11:14:15.854Z,2.67
2019-03-13T11:19:44.933Z,2.47
2019-03-13T11:25:18.927Z,2.53
2019-03-13T11:30:46.229Z,2.13
2019-03-13T11:36:10.397Z,2.33
2019-03-13T11:41:44.485Z,2.10
2019-03-13T11:47:07.972Z,2.53
2019-03-13T11:52:36.653Z,2.30
2019-03-13T11:58:02.765Z,2.20
2019-03-13T12:03:25.739Z,2.43
2019-03-13T12:09:05.485Z,2.63
2019-03-13T12:14:36.394Z,2.20
2019-03-13T12:20:03.448Z,2.50
2019-03-13T12:25:28.690Z,2.30
2019-03-13T12:30:56.364Z,2.37
2019-03-13T12:36:27.339Z,2.33
2019-03-13T12:41:53.434Z,2.53
2019-03-13T12:47:08.914Z,2.00
2019-03-13T12:52:32.305Z,2.63
2019-03-13T12:58:00.378Z,2.43
2019-03-13T13:03:43.726Z,2.30
2019-03-13T13:08:56.701Z,2.07
2019-03-13T13:14:19.086Z,2.20
2019-03-13T13:19:26.757Z,2.37
2019-03-13T13:24:34.139Z,2.70
2019-03-13T13:29:42.353Z,2.60
2019-03-13T13:34:49.189Z,2.53
2019-03-13T13:39:55.419Z,3.13
2019-03-13T13:45:02.684Z,3.70
2019-03-13T13:50:09.000Z,3.43
2019-03-13T13:55:15.413Z,3.63
2019-03-13T14:00:21.822Z,3.53
2019-03-13T14:05:28.826Z,4.10
2019-03-13T14:10:35.396Z,3.70
2019-03-13T14:15:41.593Z,3.57
2019-03-13T14:20:48.227Z,3.43
2019-03-13T14:25:54.893Z,3.87
2019-03-13T14:31:01.518Z,3.03
2019-03-13T14:36:07.552Z,3.67
2019-03-13T14:41:15.049Z,3.57
2019-03-13T14:46:21.734Z,3.30
2019-03-13T14:51:29.091Z,3.80
2019-03-13T14:56:35.063Z,3.30
2019-03-13T15:01:41.833Z,3.60
2019-03-13T15:06:48.642Z,4.30
2019-03-13T15:11:54.843Z,3.73
2019-03-13T15:17:03.229Z,3.63
2019-03-13T15:22:09.584Z,3.43
2019-03-13T15:27:17.434Z,2.87
2019-03-13T15:32:25.837Z,2.40
2019-03-13T15:37:31.771Z,2.00
2019-03-13T15:42:39.487Z,2.37
2019-03-13T15:47:45.307Z,2.13
2019-03-13T15:52:50.694Z,2.27
2019-03-13T15:57:56.621Z,2.40
2019-03-13T16:03:04.134Z,2.13
2019-03-13T16:08:11.007Z,2.43
2019-03-13T16:13:17.521Z,2.43
2019-03-13T16:18:25.373Z,2.33
2019-03-13T16:23:31.358Z,2.40
2019-03-13T16:28:38.595Z,2.40
2019-03-13T16:33:45.223Z,3.37
2019-03-13T16:38:52.359Z,2.80
2019-03-13T16:44:00.309Z,2.53
2019-03-13T16:49:06.864Z,3.07
2019-03-13T16:54:13.475Z,3.30
2019-03-13T16:59:20.719Z,3.63
2019-03-13T17:04:28.597Z,3.77
2019-03-13T17:09:33.635Z,4.03
2019-03-13T17:14:42.442Z,3.33
2019-03-13T17:19:48.441Z,3.27
2019-03-13T17:24:56.042Z,3.07
2019-03-13T17:30:02.010Z,2.60
2019-03-13T17:35:08.520Z,2.50
2019-03-13T17:40:16.943Z,3.10
2019-03-13T17:45:23.490Z,3.10
2019-03-13T17:50:29.520Z,3.23
2019-03-13T17:55:35.943Z,2.60
2019-03-13T18:00:48.977Z,2.57
2019-03-13T18:05:55.565Z,3.23
2019-03-13T18:11:01.473Z,3.30
2019-03-13T18:16:07.201Z,3.60
2019-03-13T18:21:13.956Z,4.10
2019-03-13T18:26:19.889Z,4.23
2019-03-13T18:31:27.346Z,4.67
2019-03-13T18:36:34.866Z,4.80
2019-03-13T18:41:43.766Z,4.73
2019-03-13T18:46:50.413Z,4.50
2019-03-13T18:51:57.552Z,4.50
2019-03-13T18:57:04.145Z,4.70
2019-03-13T19:02:11.931Z,4.87
2019-03-13T19:07:17.560Z,5.47
2019-03-13T19:12:23.248Z,4.10
2019-03-13T19:17:31.021Z,3.07
2019-03-13T19:22:36.409Z,4.47
2019-03-13T19:27:42.580Z,4.00
2019-03-13T19:32:49.491Z,4.67
2019-03-13T19:37:57.369Z,4.90
2019-03-13T19:43:04.289Z,4.20
2019-03-13T19:48:10.565Z,4.80
2019-03-13T19:53:16.191Z,4.67
2019-03-13T19:58:23.791Z,4.10
2019-03-13T20:03:32.963Z,3.97
2019-03-13T20:08:39.386Z,4.10
2019-03-13T20:13:45.745Z,4.77
2019-03-13T20:18:52.089Z,5.50
2019-03-13T20:23:57.836Z,4.83
2019-03-13T20:29:04.200Z,5.20
2019-03-13T20:34:10.672Z,5.13
2019-03-13T20:39:18.362Z,4.73
2019-03-13T20:44:27.074Z,4.40
2019-03-13T20:49:34.928Z,4.77
2019-03-13T20:54:42.637Z,3.93
2019-03-13T20:59:48.046Z,3.77
2019-03-13T21:04:54.423Z,4.07
2019-03-13T21:10:01.819Z,3.70
2019-03-13T21:15:08.642Z,3.50
2019-03-13T21:20:17.614Z,4.10
2019-03-13T21:25:24.849Z,4.00
2019-03-13T21:30:31.178Z,4.37
2019-03-13T21:35:37.484Z,3.67
2019-03-13T21:40:43.921Z,3.80
2019-03-13T21:45:51.035Z,3.67
2019-03-13T21:50:57.341Z,3.47
2019-03-13T21:56:06.789Z,3.87
2019-03-13T22:01:19.907Z,4.07
2019-03-13T22:06:28.727Z,4.07
2019-03-13T22:11:29.225Z,4.40
2019-03-13T22:16:35.522Z,4.00
2019-03-13T22:21:42.420Z,4.27
2019-03-13T22:26:49.656Z,4.07
2019-03-13T22:31:55.661Z,4.30
2019-03-13T22:37:02.503Z,4.10
2019-03-13T22:42:09.418Z,4.07
2019-03-13T22:47:14.301Z,4.27
2019-03-13T22:52:20.119Z,4.00
2019-03-13T22:57:27.292Z,3.87
2019-03-13T23:02:32.436Z,4.13
2019-03-13T23:07:38.012Z,3.37
2019-03-13T23:12:44.843Z,3.43
2019-03-13T23:17:52.206Z,3.60
2019-03-13T23:22:57.777Z,3.87
2019-03-13T23:28:03.812Z,3.20
2019-03-13T23:33:11.778Z,3.37
2019-03-13T23:38:19.565Z,3.80
2019-03-13T23:43:24.329Z,3.53
2019-03-13T23:48:31.529Z,3.00
2019-03-13T23:53:38.693Z,3.67
2019-03-13T23:58:45.566Z,3.23
